• Join FlightAware (Why Join?)
  • Login
  • US Flag 
12:10AM EDT


 

Airport Tracker/Info


-or-


 

Live Flight TrackerFlight Track Log ✈ CTL22 ✈ 25-Apr-2013 ✈ KAZO - KBKL

Flight Track Log - Related Links

Times and Time Zones

All times are in EDT time to prevent confusion due to time zone crossing. See the CTL22 flight status page for this flight to view local times or setup timezone preferences in your user account.

Time Position Orientation Groundspeed Altitude Reporting Facility
EDT Latitude Longitude Course Direction KTS MPH feet Rate Location/Type
08:02PM 42.2119 -85.4133 114° Southeast 152 175 4,400  Level Chicago Center
08:03PM 42.1986 -85.3564 108° East 158 182 5,300 720 Climbing Chicago Center
08:05PM 42.1677 -85.1555 103° East  Level Estimated
08:05PM 42.1611 -85.2428 114° Southeast 166 191 6,800  Level Chicago Center
08:06PM 42.1564 -85.0896 103° East  Level Estimated
08:06PM 42.1328 -85.1742 119° Southeast 173 199 7,100  Level Chicago Center
08:07PM 42.1064 -85.1097 119° Southeast 189 217 7,100  Level Chicago Center
08:08PM 42.0825 -85.0447 116° Southeast 193 222 7,100  Level Chicago Center
08:09PM 42.0586 -84.9797 116° Southeast 194 223 7,100  Level Chicago Center
08:10PM 42.0347 -84.9150 116° Southeast 193 222 7,100  Level Chicago Center
08:11PM 42.0100 -84.8503 117° Southeast 193 222 7,100  Level Chicago Center
08:12PM 41.9794 -84.7753 119° Southeast 191 220 7,100  Level Chicago Center
08:13PM 41.9539 -84.7119 118° Southeast 192 221 7,100  Level Chicago Center
08:14PM 41.9322 -84.6464 114° Southeast 192 221 7,100  Level Chicago Center
08:15PM 41.9225 -84.5761 101° East 191 220 7,100  Level Chicago Center
08:16PM 41.9144 -84.5047 99° East 192 221 7,100  Level Chicago Center
08:17PM 41.9028 -84.4361 103° East 190 219 7,200  Climbing Chicago Center
08:18PM 41.8900 -84.3678 104° East 190 219 7,200  Level Chicago Center
08:19PM 41.8747 -84.2853 104° East 190 219 7,300  Climbing Chicago Center
08:20PM 41.8617 -84.2156 104° East 191 220 7,200 -120 Descending Chicago Center
08:21PM 41.8486 -84.1458 104° East 192 221 7,100 -60 Descending Chicago Center
08:22PM 41.8375 -84.0764 102° East 192 221 7,100  Level Chicago Center
08:23PM 41.8267 -84.0061 102° East 192 221 7,200 60 Climbing Chicago Center